createdAt,value
2023-04-19T00:00:45.234Z,101973.78
2023-04-19T00:03:12.129Z,101964.06
2023-04-19T00:05:39.576Z,101971.91
2023-04-19T00:08:06.403Z,101967.75
2023-04-19T00:10:33.128Z,101960.72
2023-04-19T00:12:59.653Z,101958.41
2023-04-19T00:15:26.292Z,101954.50
2023-04-19T00:17:53.044Z,101960.28
2023-04-19T00:20:20.287Z,101956.97
2023-04-19T00:22:47.118Z,101953.28
2023-04-19T00:25:13.759Z,101952.41
2023-04-19T00:27:40.319Z,101950.56
2023-04-19T00:30:06.858Z,101947.81
2023-04-19T00:32:33.442Z,101948.47
2023-04-19T00:35:00.359Z,101954.69
2023-04-19T00:37:27.747Z,101951.75
2023-04-19T00:39:54.446Z,101947.19
2023-04-19T00:42:21.128Z,101947.19
2023-04-19T00:44:47.988Z,101942.41
2023-04-19T00:47:14.528Z,101944.50
2023-04-19T00:49:41.200Z,101942.03
2023-04-19T00:52:07.639Z,101931.63
2023-04-19T00:54:34.149Z,101933.94
2023-04-19T00:57:00.616Z,101931.88
2023-04-19T00:59:27.061Z,101931.88
2023-04-19T01:01:53.687Z,101935.56
2023-04-19T01:04:20.946Z,101929.59
2023-04-19T01:06:49.325Z,101932.28
2023-04-19T01:09:16.378Z,101931.03
2023-04-19T01:11:43.632Z,101938.47
2023-04-19T01:14:10.416Z,101924.78
2023-04-19T01:16:37.099Z,101927.06
2023-04-19T01:19:03.654Z,101915.91
2023-04-19T01:21:30.774Z,101920.03
2023-04-19T01:23:57.291Z,101923.13
2023-04-19T01:26:23.857Z,101918.16
2023-04-19T01:28:50.353Z,101917.72
2023-04-19T01:31:16.862Z,101916.28
2023-04-19T01:33:43.353Z,101917.31
2023-04-19T01:36:09.870Z,101913.59
2023-04-19T01:38:36.401Z,101917.72
2023-04-19T01:41:02.928Z,101915.38
2023-04-19T01:43:29.771Z,101907.31
2023-04-19T01:45:56.250Z,101914.97
2023-04-19T01:48:23.086Z,101906.25
2023-04-19T01:50:49.574Z,101905.25
2023-04-19T01:53:16.074Z,101911.88
2023-04-19T01:55:42.768Z,101905.44
2023-04-19T01:58:09.229Z,101904.59
2023-04-19T02:00:35.926Z,101903.53
2023-04-19T02:03:04.140Z,101902.50
2023-04-19T02:05:30.766Z,101903.94
2023-04-19T02:07:57.699Z,101901.25
2023-04-19T02:10:24.307Z,101901.44
2023-04-19T02:12:50.821Z,101902.69
2023-04-19T02:15:17.288Z,101895.84
2023-04-19T02:17:44.298Z,101896.03
2023-04-19T02:20:11.318Z,101901.44
2023-04-19T02:22:38.239Z,101900.59
2023-04-19T02:25:05.129Z,101900.78
2023-04-19T02:27:31.929Z,101902.66
2023-04-19T02:29:58.566Z,101902.00
2023-04-19T02:32:25.173Z,101898.06
2023-04-19T02:34:51.717Z,101894.34
2023-04-19T02:37:18.367Z,101900.13
2023-04-19T02:39:44.965Z,101887.72
2023-04-19T02:42:11.618Z,101899.50
2023-04-19T02:44:38.064Z,101894.53
2023-04-19T02:47:04.618Z,101891.00
2023-04-19T02:49:31.337Z,101897.22
2023-04-19T02:51:58.074Z,101881.47
2023-04-19T02:54:24.620Z,101881.47
2023-04-19T02:56:51.153Z,101888.09
2023-04-19T02:59:17.698Z,101880.22
2023-04-19T03:01:44.286Z,101882.25
2023-04-19T03:04:10.803Z,101889.50
2023-04-19T03:06:37.306Z,101886.81
2023-04-19T03:09:03.756Z,101888.69
2023-04-19T03:11:30.309Z,101887.22
2023-04-19T03:13:56.749Z,101885.56
2023-04-19T03:16:23.699Z,101891.78
2023-04-19T03:18:50.555Z,101889.28
2023-04-19T03:21:17.114Z,101877.50
2023-04-19T03:23:43.610Z,101876.84
2023-04-19T03:26:10.113Z,101872.91
2023-04-19T03:28:36.656Z,101874.59
2023-04-19T03:31:03.273Z,101874.78
2023-04-19T03:33:30.054Z,101872.28
2023-04-19T03:35:56.682Z,101872.47
2023-04-19T03:38:23.200Z,101870.00
2023-04-19T03:40:49.772Z,101866.50
2023-04-19T03:43:16.279Z,101865.03
2023-04-19T03:45:43.132Z,101859.44
2023-04-19T03:48:09.607Z,101862.53
2023-04-19T03:50:36.276Z,101858.19
2023-04-19T03:53:02.830Z,101851.78
2023-04-19T03:55:29.379Z,101856.72
2023-04-19T03:57:55.897Z,101853.22
2023-04-19T04:00:22.379Z,101854.88
2023-04-19T04:02:51.444Z,101850.91
2023-04-19T04:05:18.325Z,101850.53
2023-04-19T04:07:44.862Z,101847.84
2023-04-19T04:10:11.354Z,101843.50
2023-04-19T04:12:37.951Z,101848.63
2023-04-19T04:15:04.594Z,101854.44
2023-04-19T04:17:31.317Z,101844.69
2023-04-19T04:19:57.817Z,101848.41
2023-04-19T04:22:24.364Z,101844.69
2023-04-19T04:24:51.005Z,101844.09
2023-04-19T04:27:17.502Z,101842.25
2023-04-19T04:29:44.253Z,101843.47
2023-04-19T04:32:11.371Z,101831.25
2023-04-19T04:34:38.085Z,101822.78
2023-04-19T04:37:04.576Z,101833.53
2023-04-19T04:39:31.225Z,101832.72
2023-04-19T04:41:57.768Z,101831.69
2023-04-19T04:44:24.663Z,101829.59
2023-04-19T04:46:51.306Z,101827.53
2023-04-19T04:49:17.845Z,101823.59
2023-04-19T04:51:44.509Z,101825.25
2023-04-19T04:54:11.097Z,101822.75
2023-04-19T04:56:37.714Z,101825.25
2023-04-19T04:59:04.240Z,101832.66
2023-04-19T05:01:30.687Z,101833.69
2023-04-19T05:03:57.900Z,101823.13
2023-04-19T05:06:24.578Z,101818.00
2023-04-19T05:08:51.119Z,101816.94
2023-04-19T05:11:17.597Z,101822.31
2023-04-19T05:13:44.366Z,101812.31
2023-04-19T05:16:10.935Z,101809.72
2023-04-19T05:18:37.785Z,101805.56
2023-04-19T05:21:05.000Z,101810.94
2023-04-19T05:23:31.873Z,101810.47
2023-04-19T05:25:58.355Z,101807.78
2023-04-19T05:28:24.840Z,101810.13
2023-04-19T05:30:51.606Z,101803.06
2023-04-19T05:33:18.309Z,101804.25
2023-04-19T05:35:45.173Z,101794.75
2023-04-19T05:38:11.993Z,101801.16
2023-04-19T05:40:38.431Z,101798.25
2023-04-19T05:43:05.014Z,101794.31
2023-04-19T05:45:31.705Z,101785.22
2023-04-19T05:47:58.322Z,101783.59
2023-04-19T05:50:25.084Z,101782.56
2023-04-19T05:52:51.664Z,101787.91
2023-04-19T05:55:18.335Z,101780.25
2023-04-19T05:57:45.303Z,101776.09
2023-04-19T06:00:12.069Z,101776.09
2023-04-19T06:02:38.672Z,101770.97
2023-04-19T06:05:09.999Z,101769.09
2023-04-19T06:07:43.228Z,101768.28
2023-04-19T06:10:13.400Z,101771.78
2023-04-19T06:12:40.027Z,101768.28
2023-04-19T06:15:06.583Z,101766.59
2023-04-19T06:17:33.284Z,101760.22
2023-04-19T06:19:59.811Z,101773.66
2023-04-19T06:22:26.285Z,101773.66
2023-04-19T06:24:52.994Z,101769.94
2023-04-19T06:27:19.531Z,101761.66
2023-04-19T06:29:46.001Z,101769.28
2023-04-19T06:32:12.790Z,101764.09
2023-04-19T06:34:39.486Z,101771.34
2023-04-19T06:37:06.162Z,101764.53
2023-04-19T06:39:32.654Z,101763.50
2023-04-19T06:41:59.614Z,101763.69
2023-04-19T06:44:25.987Z,101756.00
2023-04-19T06:46:52.571Z,101765.75
2023-04-19T06:49:19.086Z,101762.22
2023-04-19T06:51:45.613Z,101758.69
2023-04-19T06:54:12.482Z,101751.28
2023-04-19T06:56:39.682Z,101757.88
2023-04-19T06:59:06.198Z,101744.28
2023-04-19T07:01:32.899Z,101741.97
2023-04-19T07:03:59.628Z,101739.47
2023-04-19T07:06:26.189Z,101747.53
2023-04-19T07:08:52.907Z,101746.06
2023-04-19T07:11:20.485Z,101741.31
2023-04-19T07:13:48.671Z,101742.34
2023-04-19T07:16:15.200Z,101743.00
2023-04-19T07:18:41.967Z,101730.41
2023-04-19T07:21:08.402Z,101731.63
2023-04-19T07:23:35.254Z,101724.22
2023-04-19T07:26:01.646Z,101720.06
2023-04-19T07:28:28.129Z,101722.53
2023-04-19T07:30:54.566Z,101719.22
2023-04-19T07:33:20.983Z,101721.06
2023-04-19T07:35:47.733Z,101716.75
2023-04-19T07:38:14.123Z,101708.25
2023-04-19T07:40:41.012Z,101718.63
2023-04-19T07:43:07.297Z,101716.94
2023-04-19T07:45:33.796Z,101716.94
2023-04-19T07:48:00.252Z,101708.25
2023-04-19T07:50:26.650Z,101701.25
2023-04-19T07:52:53.043Z,101703.94
2023-04-19T07:55:19.918Z,101696.50
2023-04-19T07:57:46.357Z,101704.75
2023-04-19T08:00:12.654Z,101700.41
2023-04-19T08:02:39.317Z,101695.22
2023-04-19T08:05:06.171Z,101696.47
2023-04-19T08:07:32.819Z,101703.66
2023-04-19T08:09:59.137Z,101701.63
2023-04-19T08:12:35.135Z,101705.97
2023-04-19T08:15:19.670Z,101703.66
2023-04-19T08:17:51.742Z,101699.97
2023-04-19T08:20:18.135Z,101693.97
2023-04-19T08:22:44.565Z,101700.78
2023-04-19T08:25:10.966Z,101705.34
2023-04-19T08:27:37.315Z,101703.28
2023-04-19T08:30:03.674Z,101706.16
2023-04-19T08:32:30.254Z,101702.44
2023-04-19T08:34:56.684Z,101699.13
2023-04-19T08:37:23.049Z,101692.13
2023-04-19T08:39:49.488Z,101686.94
2023-04-19T08:42:28.811Z,101683.88
2023-04-19T08:48:00.780Z,101669.44
2023-04-19T08:50:33.252Z,101670.22
2023-04-19T08:53:09.056Z,101663.84
2023-04-19T08:56:06.992Z,101669.44
2023-04-19T08:58:46.578Z,101668.16
2023-04-19T09:01:31.093Z,101665.66
2023-04-19T09:04:10.176Z,101658.66
2023-04-19T09:06:43.752Z,101661.16
2023-04-19T09:09:16.953Z,101659.28
2023-04-19T09:11:51.110Z,101662.16
2023-04-19T09:14:17.516Z,101666.72
2023-04-19T09:16:43.921Z,101655.13
2023-04-19T09:19:23.360Z,101653.47
2023-04-19T09:21:51.103Z,101657.19
2023-04-19T09:24:17.462Z,101651.19
2023-04-19T09:26:43.825Z,101647.47
2023-04-19T09:29:11.102Z,101645.63
2023-04-19T09:34:07.829Z,101634.31
2023-04-19T09:36:34.688Z,101634.69
2023-04-19T09:39:01.003Z,101640.91
2023-04-19T09:41:27.506Z,101628.50
2023-04-19T09:44:11.741Z,101623.53
2023-04-19T09:46:40.644Z,101635.72
2023-04-19T09:49:21.216Z,101640.44
2023-04-19T09:51:53.869Z,101629.72
2023-04-19T09:54:20.219Z,101628.91
2023-04-19T09:56:47.019Z,101624.16
2023-04-19T09:59:20.649Z,101624.53
2023-04-19T10:01:47.940Z,101625.56
2023-04-19T10:04:25.864Z,101619.63
2023-04-19T10:07:25.333Z,101621.88
2023-04-19T10:09:52.913Z,101611.78
2023-04-19T10:14:57.594Z,101616.94
2023-04-19T10:17:23.932Z,101616.75
2023-04-19T10:19:50.429Z,101605.78
2023-04-19T10:22:16.796Z,101605.19
2023-04-19T10:24:44.656Z,101602.50
2023-04-19T10:27:11.948Z,101600.00
2023-04-19T10:29:38.551Z,101601.66
2023-04-19T10:32:04.943Z,101598.34
2023-04-19T10:34:31.915Z,101602.50
2023-04-19T10:36:58.365Z,101606.81
2023-04-19T10:39:25.028Z,101594.63
2023-04-19T10:41:51.606Z,101597.50
2023-04-19T10:44:17.906Z,101595.03
2023-04-19T10:46:44.269Z,101581.59
2023-04-19T10:49:11.178Z,101590.50
2023-04-19T10:51:38.264Z,101577.91
2023-04-19T10:54:05.022Z,101585.13
2023-04-19T10:56:31.881Z,101580.16
2023-04-19T10:58:58.446Z,101589.03
2023-04-19T11:01:24.834Z,101584.25
2023-04-19T11:03:51.372Z,101583.66
2023-04-19T11:06:17.828Z,101591.06
2023-04-19T11:08:44.499Z,101589.22
2023-04-19T11:11:11.233Z,101595.41
2023-04-19T11:13:37.577Z,101587.38
2023-04-19T11:16:04.266Z,101578.69
2023-04-19T11:18:30.788Z,101585.06
2023-04-19T11:20:57.620Z,101585.06
2023-04-19T11:23:23.960Z,101590.44
2023-04-19T11:25:51.132Z,101578.88
2023-04-19T11:28:17.595Z,101576.19
2023-04-19T11:30:44.283Z,101577.03
2023-04-19T11:33:10.600Z,101578.06
2023-04-19T11:35:37.389Z,101573.69
2023-04-19T11:38:04.495Z,101559.47
2023-04-19T11:40:30.972Z,101566.50
2023-04-19T11:42:57.337Z,101561.97
2023-04-19T11:47:53.425Z,101550.38
2023-04-19T11:50:19.983Z,101541.50
2023-04-19T11:52:46.405Z,101537.81
2023-04-19T11:55:13.000Z,101549.34
2023-04-19T11:57:41.524Z,101545.03
2023-04-19T12:00:08.339Z,101552.03
2023-04-19T12:02:35.249Z,101552.03
2023-04-19T12:05:02.062Z,101552.03
2023-04-19T12:07:28.937Z,101545.03
2023-04-19T12:09:55.428Z,101558.25
2023-04-19T12:12:21.846Z,101557.41
2023-04-19T12:14:48.188Z,101551.03
2023-04-19T12:17:14.806Z,101556.41
2023-04-19T12:19:41.615Z,101560.94
2023-04-19T12:22:08.121Z,101561.53
2023-04-19T12:24:34.427Z,101563.22
2023-04-19T12:27:01.898Z,101556.81
2023-04-19T12:29:29.603Z,101558.47
2023-04-19T12:31:56.093Z,101559.50
2023-04-19T12:34:22.639Z,101564.03
2023-04-19T12:36:49.261Z,101570.22
2023-04-19T12:39:16.065Z,101578.69
2023-04-19T12:41:42.549Z,101579.94
2023-04-19T12:44:08.867Z,101577.25
2023-04-19T12:46:35.706Z,101571.88
2023-04-19T12:49:02.263Z,101580.56
2023-04-19T12:51:28.793Z,101574.19
2023-04-19T12:53:55.227Z,101576.03
2023-04-19T12:56:21.940Z,101567.34
2023-04-19T12:58:48.540Z,101565.47
2023-04-19T13:01:15.012Z,101573.75
2023-04-19T13:03:41.823Z,101572.28
2023-04-19T13:06:08.338Z,101565.91
2023-04-19T13:08:44.854Z,101575.78
2023-04-19T13:11:13.003Z,101568.59
2023-04-19T13:13:39.332Z,101566.28
2023-04-19T13:16:05.856Z,101559.91
2023-04-19T13:18:32.221Z,101551.84
2023-04-19T13:20:59.170Z,101550.00
2023-04-19T13:23:25.532Z,101556.19
2023-04-19T13:25:51.932Z,101555.38
2023-04-19T13:28:18.261Z,101543.78
2023-04-19T13:30:45.045Z,101542.56
2023-04-19T13:33:11.468Z,101535.16
2023-04-19T13:35:37.976Z,101530.00
2023-04-19T13:38:04.435Z,101523.59
2023-04-19T13:40:30.959Z,101507.69
2023-04-19T13:42:57.386Z,101496.94
2023-04-19T13:45:23.743Z,101502.31
2023-04-19T13:47:50.141Z,101497.78
2023-04-19T13:50:16.463Z,101492.63
2023-04-19T13:52:43.038Z,101479.22
2023-04-19T13:55:09.514Z,101482.72
2023-04-19T13:57:36.214Z,101481.06
2023-04-19T14:00:02.661Z,101488.09
2023-04-19T14:02:29.721Z,101485.41
2023-04-19T14:04:56.138Z,101477.56
2023-04-19T14:07:22.641Z,101477.38
2023-04-19T14:09:49.547Z,101476.53
2023-04-19T14:12:16.550Z,101469.50
2023-04-19T14:14:42.865Z,101462.28
2023-04-19T14:17:09.588Z,101458.78
2023-04-19T14:19:35.915Z,101460.63
2023-04-19T14:22:02.236Z,101449.88
2023-04-19T14:24:28.986Z,101451.75
2023-04-19T14:27:07.247Z,101445.56
2023-04-19T14:29:36.911Z,101446.41
2023-04-19T14:32:17.206Z,101434.00
2023-04-19T14:34:49.620Z,101437.72
2023-04-19T14:37:16.023Z,101425.13
2023-04-19T14:39:42.739Z,101424.28
2023-04-19T14:42:09.572Z,101422.44
2023-04-19T14:44:35.955Z,101421.63
2023-04-19T14:47:02.694Z,101425.13
2023-04-19T14:49:29.036Z,101424.28
2023-04-19T14:51:55.338Z,101411.91
2023-04-19T14:54:22.071Z,101419.13
2023-04-19T14:56:48.447Z,101419.13
2023-04-19T14:59:15.096Z,101407.38
2023-04-19T15:01:42.167Z,101397.66
2023-04-19T15:04:08.917Z,101401.38
2023-04-19T15:06:35.397Z,101396.84
2023-04-19T15:09:02.061Z,101394.38
2023-04-19T15:11:28.474Z,101389.81
2023-04-19T15:13:54.945Z,101391.91
2023-04-19T15:16:21.425Z,101396.03
2023-04-19T15:18:48.374Z,101393.53
2023-04-19T15:21:15.062Z,101392.72
2023-04-19T15:23:42.198Z,101388.16
2023-04-19T15:26:08.591Z,101388.16
2023-04-19T15:28:35.359Z,101389.81
2023-04-19T15:31:01.803Z,101388.81
2023-04-19T15:33:28.665Z,101392.31
2023-04-19T15:35:54.964Z,101388.59
2023-04-19T15:38:21.467Z,101391.06
2023-04-19T15:40:48.512Z,101383.22
2023-04-19T15:43:15.392Z,101391.25
2023-04-19T15:45:42.377Z,101388.59
2023-04-19T15:48:08.732Z,101375.16
2023-04-19T15:50:35.296Z,101377.84
2023-04-19T15:53:01.924Z,101372.47
2023-04-19T15:55:28.486Z,101371.47
2023-04-19T15:57:55.236Z,101370.44
2023-04-19T16:00:21.553Z,101379.53
2023-04-19T16:02:48.336Z,101367.13
2023-04-19T16:05:15.047Z,101372.47
2023-04-19T16:07:41.513Z,101367.97
2023-04-19T16:10:07.837Z,101379.53
2023-04-19T16:12:34.539Z,101371.47
2023-04-19T16:15:01.290Z,101367.97
2023-04-19T16:17:28.188Z,101363.44
2023-04-19T16:19:54.677Z,101357.22
2023-04-19T16:22:21.033Z,101363.44
2023-04-19T16:24:47.957Z,101351.03
2023-04-19T16:27:14.324Z,101360.75
2023-04-19T16:29:40.643Z,101352.69
2023-04-19T16:32:07.228Z,101357.22
2023-04-19T16:34:34.117Z,101353.72
2023-04-19T16:37:00.934Z,101361.56
2023-04-19T16:39:27.337Z,101361.56
2023-04-19T16:41:53.988Z,101355.38
2023-04-19T16:44:20.438Z,101354.75
2023-04-19T16:46:46.731Z,101353.72
2023-04-19T16:49:13.139Z,101350.81
2023-04-19T16:51:40.311Z,101358.06
2023-04-19T16:54:07.391Z,101356.38
2023-04-19T16:56:33.820Z,101346.69
2023-04-19T16:59:00.572Z,101356.38
2023-04-19T17:01:26.991Z,101353.72
2023-04-19T17:03:53.677Z,101351.84
2023-04-19T17:06:20.762Z,101346.50
2023-04-19T17:08:47.073Z,101346.50
2023-04-19T17:11:14.115Z,101347.53
2023-04-19T17:13:40.534Z,101344.84
2023-04-19T17:16:07.309Z,101339.47
2023-04-19T17:18:33.988Z,101344.00
2023-04-19T17:21:00.822Z,101343.22
2023-04-19T17:23:27.539Z,101339.69
2023-04-19T17:25:54.068Z,101343.81
2023-04-19T17:28:20.666Z,101346.50
2023-04-19T17:30:47.449Z,101339.47
2023-04-19T17:33:13.969Z,101335.97
2023-04-19T17:35:40.313Z,101337.84
2023-04-19T17:38:07.038Z,101337.84
2023-04-19T17:40:33.844Z,101340.53
2023-04-19T17:43:00.520Z,101346.69
2023-04-19T17:45:27.038Z,101342.38
2023-04-19T17:47:55.316Z,101343.41
2023-04-19T17:50:22.492Z,101344.22
2023-04-19T17:52:49.623Z,101353.09
2023-04-19T17:55:16.252Z,101350.41
2023-04-19T17:57:42.743Z,101358.47
2023-04-19T18:00:09.089Z,101355.78
2023-04-19T18:02:35.964Z,101364.88
2023-04-19T18:05:02.763Z,101361.97
2023-04-19T18:07:29.271Z,101354.94
2023-04-19T18:09:55.588Z,101358.47
2023-04-19T18:12:22.076Z,101370.03
2023-04-19T18:14:48.418Z,101370.22
2023-04-19T18:17:14.791Z,101367.56
2023-04-19T18:19:41.533Z,101365.66
2023-04-19T18:22:08.189Z,101379.09
2023-04-19T18:24:34.696Z,101379.31
2023-04-19T18:27:01.339Z,101382.81
2023-04-19T18:29:27.657Z,101377.25
2023-04-19T18:31:54.691Z,101375.81
2023-04-19T18:34:21.556Z,101384.69
2023-04-19T18:36:47.950Z,101389.00
2023-04-19T18:39:14.459Z,101395.19
2023-04-19T18:41:41.055Z,101388.16
2023-04-19T18:44:34.758Z,101388.16
2023-04-19T18:46:53.885Z,101393.53
2023-04-19T18:49:20.320Z,101390.06
2023-04-19T18:51:46.946Z,101392.72
2023-04-19T18:54:13.574Z,101390.25
2023-04-19T18:57:14.785Z,101391.06
2023-04-19T18:59:26.537Z,101397.25
2023-04-19T19:01:53.167Z,101389.22
2023-04-19T19:04:37.186Z,101395.63
2023-04-19T19:07:18.174Z,101404.47
2023-04-19T19:09:56.164Z,101407.16
2023-04-19T19:12:23.170Z,101408.19
2023-04-19T19:14:49.663Z,101406.34
2023-04-19T19:17:16.703Z,101406.34
2023-04-19T19:19:43.139Z,101413.75
2023-04-19T19:22:25.008Z,101410.88
2023-04-19T19:24:54.036Z,101410.03
2023-04-19T19:27:20.421Z,101411.91
2023-04-19T19:29:47.034Z,101417.06
2023-04-19T19:32:13.804Z,101420.75
2023-04-19T19:34:53.770Z,101415.41
2023-04-19T19:37:21.044Z,101416.22
2023-04-19T19:39:47.359Z,101416.44
2023-04-19T19:42:14.096Z,101416.22
2023-04-19T19:44:41.131Z,101412.94
2023-04-19T19:47:10.211Z,101419.94
2023-04-19T19:49:49.523Z,101432.72
2023-04-19T19:52:23.371Z,101422.00
2023-04-19T19:54:49.833Z,101433.38
2023-04-19T19:59:51.363Z,101432.72
2023-04-19T20:02:19.458Z,101438.09
2023-04-19T20:04:46.092Z,101438.94
2023-04-19T20:07:28.853Z,101443.06
2023-04-19T20:09:59.146Z,101442.66
2023-04-19T20:12:25.552Z,101433.56
2023-04-19T20:14:51.928Z,101442.66
2023-04-19T20:17:18.941Z,101442.66
2023-04-19T20:19:45.364Z,101444.50
2023-04-19T20:22:11.713Z,101433.97
2023-04-19T20:24:38.572Z,101432.31
2023-04-19T20:27:05.020Z,101435.84
2023-04-19T20:29:31.350Z,101439.53
2023-04-19T20:31:57.841Z,101438.09
2023-04-19T20:34:24.313Z,101442.19
2023-04-19T20:36:50.644Z,101433.34
2023-04-19T20:39:17.673Z,101441.19
2023-04-19T20:41:44.079Z,101439.31
2023-04-19T20:44:10.488Z,101441.19
2023-04-19T20:46:37.022Z,101431.28
2023-04-19T20:49:03.551Z,101437.69
2023-04-19T20:51:30.343Z,101438.53
2023-04-19T20:53:57.227Z,101436.22
2023-04-19T20:56:23.765Z,101439.94
2023-04-19T20:58:50.262Z,101432.50
2023-04-19T21:01:16.638Z,101436.44
2023-04-19T21:03:43.486Z,101440.56
2023-04-19T21:06:10.305Z,101438.91
2023-04-19T21:08:37.218Z,101437.25
2023-04-19T21:11:03.614Z,101446.97
2023-04-19T21:13:30.256Z,101448.81
2023-04-19T21:15:56.622Z,101458.72
2023-04-19T21:18:23.475Z,101460.16
2023-04-19T21:20:49.985Z,101457.69
2023-04-19T21:23:16.809Z,101458.72
2023-04-19T21:25:43.993Z,101462.41
2023-04-19T21:28:10.480Z,101470.91
2023-04-19T21:30:36.792Z,101470.91
2023-04-19T21:33:03.962Z,101473.78
2023-04-19T21:35:30.631Z,101469.44
2023-04-19T21:37:56.961Z,101468.63
2023-04-19T21:40:23.380Z,101471.09
2023-04-19T21:42:50.256Z,101462.41
2023-04-19T21:45:17.085Z,101461.41
2023-04-19T21:47:44.138Z,101460.75
2023-04-19T21:50:11.357Z,101466.13
2023-04-19T21:52:38.206Z,101465.94
2023-04-19T21:55:05.034Z,101462.41
2023-04-19T21:57:31.423Z,101459.72
2023-04-19T21:59:58.264Z,101468.81
2023-04-19T22:02:24.786Z,101475.00
2023-04-19T22:04:51.551Z,101468.63
2023-04-19T22:07:18.112Z,101463.63
2023-04-19T22:09:44.420Z,101474.38
2023-04-19T22:12:10.854Z,101456.44
2023-04-19T22:14:37.154Z,101454.16
2023-04-19T22:17:03.553Z,101460.75
2023-04-19T22:19:30.275Z,101454.59
2023-04-19T22:21:56.603Z,101452.53
2023-04-19T22:24:23.025Z,101455.81
2023-04-19T22:26:49.480Z,101452.50
2023-04-19T22:29:16.309Z,101457.66
2023-04-19T22:31:42.816Z,101457.47
2023-04-19T22:34:09.280Z,101460.34
2023-04-19T22:36:35.761Z,101448.78
2023-04-19T22:39:03.097Z,101462.19
2023-04-19T22:41:29.892Z,101457.84
2023-04-19T22:43:56.416Z,101457.25
2023-04-19T22:46:22.789Z,101456.22
2023-04-19T22:48:49.188Z,101457.84
2023-04-19T22:51:15.981Z,101459.09
2023-04-19T22:53:42.324Z,101456.59
2023-04-19T22:56:08.651Z,101451.25
2023-04-19T22:58:35.112Z,101452.50
2023-04-19T23:01:01.579Z,101458.91
2023-04-19T23:03:28.150Z,101462.81
2023-04-19T23:05:54.543Z,101456.41
2023-04-19T23:08:21.285Z,101446.91
2023-04-19T23:10:47.784Z,101451.25
2023-04-19T23:13:14.212Z,101447.53
2023-04-19T23:15:41.141Z,101451.88
2023-04-19T23:18:07.616Z,101454.13
2023-04-19T23:20:34.050Z,101450.63
2023-04-19T23:23:00.915Z,101452.47
2023-04-19T23:25:27.370Z,101453.50
2023-04-19T23:27:54.591Z,101457.84
2023-04-19T23:30:20.978Z,101457.00
2023-04-19T23:32:47.548Z,101448.56
2023-04-19T23:35:13.986Z,101452.28
2023-04-19T23:37:40.718Z,101447.94
2023-04-19T23:40:07.157Z,101444.22
2023-04-19T23:42:33.705Z,101448.75
2023-04-19T23:45:00.155Z,101451.88
2023-04-19T23:47:26.777Z,101441.94
2023-04-19T23:49:53.381Z,101440.09
2023-04-19T23:52:19.743Z,101432.44
2023-04-19T23:54:46.722Z,101438.22
2023-04-19T23:57:13.097Z,101437.63
2023-04-19T23:59:39.494Z,101427.72
